Time;durP1;ratioP1;P1;durP2;ratioP2;P2;SDS_P1;SDS_P2;PMS_P1;PMS_P2;Temp;Humidity;BMP_temperature;BMP_pressure;BME280_temperature;BME280_humidity;BME280_pressure;Samples;Min_cycle;Max_cycle;Signal;HPM_P1;HPM_P2
2023/12/03 00:02:12;;;;;;;18.30;10.60;;;;;;;-3.51;100.00;100354.23;105474;1254;72764;-57
2023/12/03 00:04:42;;;;;;;18.30;9.70;;;;;;;-3.49;100.00;100353.09;105442;1258;82490;-57
2023/12/03 00:07:11;;;;;;;16.80;9.90;;;;;;;-3.48;100.00;100353.79;105435;1254;71606;-57
2023/12/03 00:09:40;;;;;;;19.80;10.50;;;;;;;-3.47;100.00;100353.45;105434;1259;69196;-57
2023/12/03 00:12:08;;;;;;;18.50;9.80;;;;;;;-3.47;100.00;100357.73;105453;1255;69169;-57
2023/12/03 00:14:37;;;;;;;18.80;10.70;;;;;;;-3.46;100.00;100357.59;105376;1260;73163;-57
2023/12/03 00:17:05;;;;;;;19.90;10.60;;;;;;;-3.43;100.00;100362.75;105427;1260;81454;-57
2023/12/03 00:19:34;;;;;;;17.40;9.80;;;;;;;-3.39;100.00;100361.12;105426;1259;71607;-57
2023/12/03 00:22:02;;;;;;;19.60;10.70;;;;;;;-3.39;100.00;100361.81;105422;1261;69217;-57
2023/12/03 00:24:30;;;;;;;19.30;10.40;;;;;;;-3.37;100.00;100364.08;105411;1254;69176;-57
2023/12/03 00:26:59;;;;;;;17.60;10.40;;;;;;;-3.35;100.00;100364.61;105489;1255;73161;-57
2023/12/03 00:29:27;;;;;;;21.90;11.50;;;;;;;-3.34;100.00;100369.59;105462;1258;81584;-56
2023/12/03 00:31:56;;;;;;;20.80;11.20;;;;;;;-3.33;100.00;100371.98;105348;1258;71687;-57
2023/12/03 00:34:24;;;;;;;19.60;11.40;;;;;;;-3.34;100.00;100371.30;105439;1260;69191;-57
2023/12/03 00:36:52;;;;;;;20.40;11.60;;;;;;;-3.34;100.00;100373.17;105448;1257;69150;-57
2023/12/03 00:39:21;;;;;;;20.20;12.10;;;;;;;-3.34;100.00;100376.27;105430;1254;73236;-57
2023/12/03 00:41:49;;;;;;;20.50;11.40;;;;;;;-3.33;100.00;100378.98;105371;1257;81582;-57
2023/12/03 00:44:18;;;;;;;20.10;11.50;;;;;;;-3.32;100.00;100382.44;105354;1256;70571;-56
2023/12/03 00:46:46;;;;;;;19.70;11.80;;;;;;;-3.31;100.00;100385.02;105442;1258;69133;-57
2023/12/03 00:49:15;;;;;;;21.20;12.10;;;;;;;-3.31;100.00;100385.36;105392;1258;69128;-56
2023/12/03 00:51:43;;;;;;;21.10;12.50;;;;;;;-3.30;100.00;100389.48;105405;1254;72716;-57
2023/12/03 00:54:11;;;;;;;20.80;11.00;;;;;;;-3.27;100.00;100392.10;105395;1260;81533;-57
2023/12/03 00:56:39;;;;;;;20.20;11.10;;;;;;;-3.26;100.00;100400.51;105402;1260;71468;-57
2023/12/03 00:59:08;;;;;;;23.50;12.10;;;;;;;-3.25;100.00;100399.65;105355;1258;69188;-56
2023/12/03 01:01:36;;;;;;;19.30;11.40;;;;;;;-3.25;100.00;100397.95;105465;1260;69191;-57
2023/12/03 01:04:04;;;;;;;21.00;11.20;;;;;;;-3.24;100.00;100401.92;105403;1254;72732;-57
2023/12/03 01:06:32;;;;;;;21.40;11.80;;;;;;;-3.23;100.00;100399.88;105416;1257;81975;-57
2023/12/03 01:09:01;;;;;;;17.70;10.60;;;;;;;-3.23;100.00;100406.02;105377;1258;71624;-57
2023/12/03 01:11:29;;;;;;;22.40;12.00;;;;;;;-3.24;100.00;100415.75;105414;1257;69168;-57
2023/12/03 01:14:03;;;;;;;21.20;10.90;;;;;;;-3.22;100.00;100420.39;105394;1254;69170;-56
2023/12/03 01:16:32;;;;;;;20.30;10.90;;;;;;;-3.22;100.00;100424.33;105451;1254;73250;-56
2023/12/03 01:19:01;;;;;;;18.10;10.70;;;;;;;-3.21;100.00;100426.06;105439;1258;81431;-56
2023/12/03 01:21:29;;;;;;;19.10;11.30;;;;;;;-3.21;100.00;100429.65;105499;1255;71829;-57
2023/12/03 01:23:58;;;;;;;19.00;11.50;;;;;;;-3.21;100.00;100433.94;105494;1254;69146;-56
2023/12/03 01:26:26;;;;;;;23.80;11.80;;;;;;;-3.20;100.00;100436.67;105393;1259;69199;-56
2023/12/03 01:28:54;;;;;;;18.40;10.30;;;;;;;-3.19;100.00;100437.52;105385;1260;72482;-56
2023/12/03 01:31:22;;;;;;;21.30;11.20;;;;;;;-3.19;100.00;100439.44;105418;1260;81448;-56
2023/12/03 01:33:50;;;;;;;19.70;10.90;;;;;;;-3.19;100.00;100437.73;105413;1258;71898;-56
2023/12/03 01:36:19;;;;;;;18.60;10.60;;;;;;;-3.18;100.00;100440.31;105398;1254;69098;-57
2023/12/03 01:38:47;;;;;;;21.10;11.20;;;;;;;-3.18;100.00;100444.59;105387;1259;69142;-56
2023/12/03 01:41:15;;;;;;;18.90;10.60;;;;;;;-3.19;100.00;100449.52;105402;1254;71582;-56
2023/12/03 01:43:47;;;;;;;18.50;11.00;;;;;;;-3.17;100.00;100451.09;105364;1260;80179;-56
2023/12/03 01:46:16;;;;;;;18.00;10.50;;;;;;;-3.18;100.00;100451.77;105412;1254;70073;-56
2023/12/03 01:48:45;;;;;;;19.10;11.10;;;;;;;-3.18;100.00;100450.05;105422;1254;69086;-57
2023/12/03 01:51:14;;;;;;;19.60;10.70;;;;;;;-3.17;100.00;100452.45;105486;1257;69183;-57
2023/12/03 01:53:43;;;;;;;20.20;11.50;;;;;;;-3.16;100.00;100452.33;105480;1254;72004;-56
2023/12/03 01:56:12;;;;;;;22.50;10.80;;;;;;;-3.15;100.00;100455.06;105435;1254;80425;-55
2023/12/03 01:58:40;;;;;;;19.60;11.50;;;;;;;-3.14;100.00;100460.55;105419;1260;71595;-56
2023/12/03 02:01:09;;;;;;;19.70;11.60;;;;;;;-3.15;100.00;100460.19;105397;1258;69162;-55
2023/12/03 02:03:37;;;;;;;19.00;10.50;;;;;;;-3.14;100.00;100458.15;105444;1255;69198;-56
2023/12/03 02:06:07;;;;;;;17.20;10.40;;;;;;;-3.14;100.00;100461.74;105445;1258;74376;-57
2023/12/03 02:08:37;;;;;;;17.90;10.20;;;;;;;-3.15;100.00;100462.24;105458;1260;81731;-55
2023/12/03 02:11:06;;;;;;;20.00;11.20;;;;;;;-3.15;100.00;100463.10;105467;1254;72667;-56
2023/12/03 02:13:37;;;;;;;20.10;10.50;;;;;;;-3.14;100.00;100465.67;105385;1254;69126;-56
2023/12/03 02:16:06;;;;;;;19.70;10.90;;;;;;;-3.14;100.00;100474.90;105406;1254;69023;-57
2023/12/03 02:18:34;;;;;;;18.30;10.30;;;;;;;-3.14;100.00;100485.16;105407;1258;72440;-56
2023/12/03 02:21:03;;;;;;;21.10;11.00;;;;;;;-3.13;100.00;100469.80;105416;1258;81375;-55
2023/12/03 02:23:31;;;;;;;20.20;11.10;;;;;;;-3.13;100.00;100479.70;105489;1258;70842;-56
2023/12/03 02:25:59;;;;;;;19.10;10.70;;;;;;;-3.11;100.00;100480.77;105460;1254;69357;-56
2023/12/03 02:28:28;;;;;;;20.30;10.00;;;;;;;-3.10;100.00;100486.25;105452;1258;69211;-56
2023/12/03 02:30:57;;;;;;;20.30;10.30;;;;;;;-3.10;100.00;100488.66;105442;1258;73730;-56
2023/12/03 02:33:25;;;;;;;21.20;11.50;;;;;;;-3.09;100.00;100493.13;105444;1258;81577;-56
2023/12/03 02:35:54;;;;;;;20.80;11.60;;;;;;;-3.09;100.00;100498.76;105386;1254;71626;-56
2023/12/03 02:38:22;;;;;;;19.70;11.30;;;;;;;-3.09;100.00;100499.10;105438;1254;69080;-56
2023/12/03 02:40:50;;;;;;;21.30;11.00;;;;;;;-3.09;100.00;100502.18;105372;1261;69207;-56
2023/12/03 02:43:18;;;;;;;16.70;10.30;;;;;;;-3.08;100.00;100503.06;105495;1258;71557;-55
2023/12/03 02:45:47;;;;;;;19.40;10.60;;;;;;;-3.07;100.00;100508.70;105288;1257;82034;-55
2023/12/03 02:48:15;;;;;;;18.60;10.60;;;;;;;-3.07;100.00;100509.58;105327;1257;72442;-56
2023/12/03 02:50:43;;;;;;;18.40;10.20;;;;;;;-3.06;100.00;100518.30;105373;1254;69131;-56
2023/12/03 02:53:11;;;;;;;18.30;10.20;;;;;;;-3.06;100.00;100519.50;105471;1254;69203;-56
2023/12/03 02:55:40;;;;;;;20.80;10.80;;;;;;;-3.06;100.00;100520.52;105454;1253;73183;-53
2023/12/03 02:58:08;;;;;;;18.30;10.60;;;;;;;-3.06;100.00;100523.77;105384;1254;82036;-57
2023/12/03 03:00:36;;;;;;;23.80;11.20;;;;;;;-3.06;100.00;100530.45;105490;1254;71790;-56
2023/12/03 03:03:04;;;;;;;19.90;11.00;;;;;;;-3.05;100.00;100536.43;105393;1254;69148;-56
2023/12/03 03:05:33;;;;;;;17.80;10.90;;;;;;;-3.05;100.00;100535.76;105411;1257;69192;-56
2023/12/03 03:08:01;;;;;;;18.50;10.70;;;;;;;-3.05;100.00;100535.77;105428;1254;73474;-55
2023/12/03 03:10:29;;;;;;;21.00;11.00;;;;;;;-3.05;100.00;100540.04;105443;1259;82654;-56
2023/12/03 03:12:57;;;;;;;19.70;11.20;;;;;;;-3.04;100.00;100539.38;105366;1253;70295;-55
2023/12/03 03:15:25;;;;;;;21.20;11.00;;;;;;;-3.02;100.00;100542.82;105419;1257;69120;-56
2023/12/03 03:17:53;;;;;;;23.30;11.20;;;;;;;-3.01;100.00;100549.02;105375;1258;69180;-54
2023/12/03 03:20:22;;;;;;;19.80;11.10;;;;;;;-3.01;100.00;100544.40;105430;1254;72974;-55
2023/12/03 03:22:51;;;;;;;19.80;10.80;;;;;;;-3.00;100.00;100552.43;105471;1258;81979;-55
2023/12/03 03:25:19;;;;;;;18.30;10.90;;;;;;;-3.00;100.00;100556.39;105453;1259;72332;-56
2023/12/03 03:27:47;;;;;;;23.90;12.30;;;;;;;-2.99;100.00;100564.96;105469;1254;69185;-55
2023/12/03 03:30:16;;;;;;;20.90;11.60;;;;;;;-2.98;100.00;100568.56;105497;1258;69212;-56
2023/12/03 03:32:44;;;;;;;22.90;13.00;;;;;;;-2.97;100.00;100572.16;105372;1254;72882;-56
2023/12/03 03:35:13;;;;;;;20.60;12.40;;;;;;;-2.96;100.00;100577.67;105347;1258;81379;-57
2023/12/03 03:37:41;;;;;;;23.60;10.50;;;;;;;-2.95;100.00;100580.93;105289;1258;72079;-56
2023/12/03 03:40:10;;;;;;;22.90;11.50;;;;;;;-2.95;100.00;100585.03;105234;1254;69204;-56
2023/12/03 03:42:38;;;;;;;21.90;12.10;;;;;;;-2.94;100.00;100591.40;105394;1258;69243;-56
2023/12/03 03:45:07;;;;;;;19.80;10.80;;;;;;;-2.94;100.00;100594.81;105310;1254;74690;-56
2023/12/03 03:47:36;;;;;;;23.60;11.00;;;;;;;-2.93;100.00;100599.96;105484;1254;81771;-56
2023/12/03 03:50:05;;;;;;;21.60;11.70;;;;;;;-2.94;100.00;100597.21;105415;1253;72110;-56
2023/12/03 03:52:33;;;;;;;19.40;11.50;;;;;;;-2.93;100.00;100601.33;105379;1257;69218;-54
2023/12/03 03:55:01;;;;;;;20.70;11.50;;;;;;;-2.94;100.00;100603.69;105256;1255;69193;-55
2023/12/03 03:57:29;;;;;;;23.30;12.60;;;;;;;-2.94;100.00;100607.48;105312;1254;74125;-55
2023/12/03 03:59:58;;;;;;;23.10;12.00;;;;;;;-2.94;100.00;100607.30;105378;1257;82011;-55
2023/12/03 04:02:26;;;;;;;20.00;10.60;;;;;;;-2.94;100.00;100607.98;105382;1257;72196;-55
2023/12/03 04:04:55;;;;;;;24.10;12.30;;;;;;;-2.94;100.00;100608.64;105433;1254;69093;-56
2023/12/03 04:07:23;;;;;;;24.30;12.20;;;;;;;-2.96;100.00;100611.02;105402;1253;69238;-55
2023/12/03 04:09:51;;;;;;;23.00;12.70;;;;;;;-2.97;100.00;100615.08;105343;1254;74205;-55
2023/12/03 04:12:20;;;;;;;20.10;11.00;;;;;;;-2.98;100.00;100620.20;105414;1259;81555;-55
2023/12/03 04:14:48;;;;;;;19.90;11.40;;;;;;;-2.98;100.00;100622.08;105274;1257;72752;-55
2023/12/03 04:17:16;;;;;;;21.80;11.70;;;;;;;-2.99;100.00;100630.78;105271;1254;69098;-54
2023/12/03 04:19:44;;;;;;;20.70;11.30;;;;;;;-3.00;100.00;100634.86;105331;1256;69204;-55
2023/12/03 04:22:12;;;;;;;23.20;12.00;;;;;;;-3.00;100.00;100636.91;105414;1253;73189;-55
2023/12/03 04:24:40;;;;;;;22.60;12.70;;;;;;;-2.99;100.00;100641.70;105361;1257;81710;-55
2023/12/03 04:27:09;;;;;;;22.00;12.10;;;;;;;-2.98;100.00;100645.33;105344;1254;72228;-56
2023/12/03 04:29:37;;;;;;;22.80;12.00;;;;;;;-2.98;100.00;100647.04;105334;1255;69125;-55
2023/12/03 04:32:06;;;;;;;20.80;11.90;;;;;;;-2.98;100.00;100650.45;105311;1257;69209;-55
2023/12/03 04:34:34;;;;;;;21.10;12.00;;;;;;;-2.97;100.00;100650.45;105384;1254;72865;-53
2023/12/03 04:37:03;;;;;;;23.20;12.40;;;;;;;-2.97;100.00;100655.95;105462;1254;81751;-55
2023/12/03 04:39:31;;;;;;;21.80;12.10;;;;;;;-2.95;100.00;100660.09;105460;1257;72329;-54
2023/12/03 04:42:00;;;;;;;24.00;13.20;;;;;;;-2.94;100.00;100661.48;105301;1254;69180;-56
2023/12/03 04:44:31;;;;;;;25.60;13.40;;;;;;;-2.93;100.00;100663.05;105392;1253;69169;-54
2023/12/03 04:46:59;;;;;;;21.40;12.30;;;;;;;-2.91;100.00;100668.21;105371;1257;71767;-56
2023/12/03 04:49:31;;;;;;;21.40;12.00;;;;;;;-2.90;100.00;100670.98;105397;1257;82906;-57
2023/12/03 04:52:00;;;;;;;21.80;11.80;;;;;;;-2.89;100.00;100673.90;105416;1257;71987;-55
2023/12/03 04:54:28;;;;;;;22.20;12.50;;;;;;;-2.89;100.00;100672.87;105509;1257;69157;-57
2023/12/03 04:56:56;;;;;;;24.20;13.80;;;;;;;-2.88;100.00;100673.41;105422;1257;69642;-57
2023/12/03 04:59:24;;;;;;;23.90;12.80;;;;;;;-2.89;100.00;100674.95;105423;1254;72943;-54
2023/12/03 05:01:53;;;;;;;25.50;13.10;;;;;;;-2.89;100.00;100679.19;105512;1257;81440;-50
2023/12/03 05:04:23;;;;;;;21.10;12.20;;;;;;;-2.88;100.00;100680.23;105439;1254;71949;-51
2023/12/03 05:06:51;;;;;;;23.00;12.60;;;;;;;-2.87;100.00;100679.25;105473;1257;69101;-53
2023/12/03 05:09:21;;;;;;;22.50;12.20;;;;;;;-2.87;100.00;100673.95;105483;1254;70054;-53
2023/12/03 05:11:49;;;;;;;22.90;13.00;;;;;;;-2.87;100.00;100673.44;105479;1254;73095;-53
2023/12/03 05:14:18;;;;;;;21.60;12.30;;;;;;;-2.86;100.00;100678.57;105550;1257;81401;-52
2023/12/03 05:16:46;;;;;;;25.50;12.60;;;;;;;-2.86;100.00;100681.50;105485;1254;70688;-53
2023/12/03 05:19:14;;;;;;;20.90;12.20;;;;;;;-2.85;100.00;100686.32;105437;1254;69174;-53
2023/12/03 05:21:42;;;;;;;23.30;11.80;;;;;;;-2.85;100.00;100681.70;105525;1257;69204;-52
2023/12/03 05:24:11;;;;;;;21.80;11.90;;;;;;;-2.84;100.00;100682.05;105538;1254;73337;-52
2023/12/03 05:26:39;;;;;;;23.10;12.40;;;;;;;-2.82;100.00;100684.14;105423;1254;80568;-52
2023/12/03 05:29:07;;;;;;;21.10;11.30;;;;;;;-2.81;100.00;100684.33;105414;1257;72130;-55
2023/12/03 05:31:36;;;;;;;21.90;13.00;;;;;;;-2.78;100.00;100690.91;105447;1257;69932;-52
2023/12/03 05:34:04;;;;;;;21.20;12.00;;;;;;;-2.77;100.00;100694.54;105468;1253;69186;-52
2023/12/03 05:36:32;;;;;;;21.00;12.30;;;;;;;-2.75;100.00;100696.95;105502;1254;72766;-53
2023/12/03 05:39:00;;;;;;;21.50;12.20;;;;;;;-2.74;100.00;100697.84;105380;1257;82824;-53
2023/12/03 05:41:29;;;;;;;20.20;11.50;;;;;;;-2.73;100.00;100702.48;105451;1257;72259;-54
2023/12/03 05:43:57;;;;;;;23.90;12.70;;;;;;;-2.72;100.00;100710.20;105358;1253;69128;-55
2023/12/03 05:46:25;;;;;;;20.30;11.70;;;;;;;-2.69;100.00;100711.96;105516;1257;69896;-52
2023/12/03 05:48:53;;;;;;;22.80;12.40;;;;;;;-2.67;100.00;100718.15;105427;1254;72996;-50
2023/12/03 05:51:21;;;;;;;24.90;12.70;;;;;;;-2.67;100.00;100723.80;105551;1257;82806;-51
2023/12/03 05:53:49;;;;;;;21.60;12.10;;;;;;;-2.66;100.00;100725.71;105451;1253;72025;-52
2023/12/03 05:56:18;;;;;;;22.10;12.30;;;;;;;-2.65;100.00;100723.17;105474;1257;69738;-50
2023/12/03 05:58:46;;;;;;;22.50;12.30;;;;;;;-2.64;100.00;100728.31;105491;1257;69151;-55
2023/12/03 06:01:23;;;;;;;26.20;13.70;;;;;;;-2.63;100.00;100731.41;105518;1257;72934;-49
2023/12/03 06:03:51;;;;;;;21.60;12.30;;;;;;;-2.62;100.00;100731.96;105497;1253;82621;-55
2023/12/03 06:06:20;;;;;;;24.00;13.00;;;;;;;-2.61;100.00;100735.23;105541;1254;71565;-57
2023/12/03 06:08:48;;;;;;;25.00;12.70;;;;;;;-2.60;100.00;100737.83;105493;1257;69163;-57
2023/12/03 06:11:16;;;;;;;21.10;11.40;;;;;;;-2.58;100.00;100739.06;105480;1257;69275;-55
2023/12/03 06:13:44;;;;;;;23.10;12.30;;;;;;;-2.58;100.00;100741.46;105478;1254;73021;-56
2023/12/03 06:16:12;;;;;;;23.60;12.60;;;;;;;-2.56;100.00;100745.43;105471;1254;81649;-56
2023/12/03 06:18:40;;;;;;;24.60;12.30;;;;;;;-2.55;100.00;100742.89;105479;1257;70566;-56
2023/12/03 06:21:08;;;;;;;22.60;12.10;;;;;;;-2.54;100.00;100747.36;105452;1254;69108;-56
2023/12/03 06:23:37;;;;;;;23.10;10.90;;;;;;;-2.54;100.00;100748.73;105538;1256;69804;-51
2023/12/03 06:26:06;;;;;;;23.50;12.40;;;;;;;-2.54;100.00;100754.89;105552;1254;72943;-53
2023/12/03 06:28:34;;;;;;;21.20;10.70;;;;;;;-2.55;100.00;100760.69;105591;1257;81749;-53
2023/12/03 06:31:06;;;;;;;23.90;11.90;;;;;;;-2.56;100.00;100765.29;105606;1256;72685;-50
2023/12/03 06:33:34;;;;;;;23.40;12.00;;;;;;;-2.55;100.00;100765.65;105599;1254;69862;-50
2023/12/03 06:36:03;;;;;;;18.50;10.30;;;;;;;-2.55;100.00;100769.42;105505;1257;69922;-50
2023/12/03 06:38:31;;;;;;;18.20;9.80;;;;;;;-2.55;100.00;100773.85;105610;1254;73074;-54
2023/12/03 06:40:59;;;;;;;21.10;10.30;;;;;;;-2.55;100.00;100774.38;105498;1257;82829;-53
2023/12/03 06:43:27;;;;;;;17.50;9.10;;;;;;;-2.55;100.00;100780.89;105708;1254;72026;-52
2023/12/03 06:45:58;;;;;;;18.40;9.50;;;;;;;-2.56;100.00;100782.91;105583;1254;69820;-49
2023/12/03 06:48:26;;;;;;;19.60;9.60;;;;;;;-2.57;100.00;100782.54;105619;1257;69973;-53
2023/12/03 06:50:55;;;;;;;16.80;8.60;;;;;;;-2.59;100.00;100791.73;105494;1254;71724;-53
2023/12/03 06:53:23;;;;;;;15.70;8.50;;;;;;;-2.61;100.00;100793.75;105501;1257;81560;-54
2023/12/03 06:55:51;;;;;;;15.40;8.50;;;;;;;-2.62;100.00;100798.17;105662;1254;71385;-53
2023/12/03 06:58:19;;;;;;;18.90;8.40;;;;;;;-2.63;100.00;100802.06;105631;1257;69897;-49
2023/12/03 07:00:48;;;;;;;15.20;8.40;;;;;;;-2.64;100.00;100806.66;105492;1258;69817;-51
2023/12/03 07:03:16;;;;;;;16.40;9.00;;;;;;;-2.66;100.00;100813.64;105517;1254;73589;-56
2023/12/03 07:05:45;;;;;;;16.50;8.70;;;;;;;-2.67;100.00;100820.11;105534;1254;83298;-53
2023/12/03 07:08:13;;;;;;;16.90;9.20;;;;;;;-2.69;100.00;100825.55;105612;1257;71681;-51
2023/12/03 07:10:41;;;;;;;18.60;9.80;;;;;;;-2.71;100.00;100829.09;105612;1254;70828;-50
2023/12/03 07:13:09;;;;;;;18.50;8.80;;;;;;;-2.75;100.00;100835.16;105517;1257;69862;-50
2023/12/03 07:15:39;;;;;;;20.30;10.00;;;;;;;-2.76;100.00;100839.75;105509;1263;74272;-49
2023/12/03 07:18:08;;;;;;;21.70;10.10;;;;;;;-2.79;100.00;100843.96;105481;1253;81551;-52
2023/12/03 07:20:36;;;;;;;18.30;9.60;;;;;;;-2.83;100.00;100850.52;105607;1254;71753;-51
2023/12/03 07:23:04;;;;;;;18.70;8.80;;;;;;;-2.87;100.00;100849.23;105501;1254;70160;-50
2023/12/03 07:25:32;;;;;;;16.00;9.10;;;;;;;-2.91;100.00;100855.95;105575;1256;69851;-50
2023/12/03 07:28:01;;;;;;;17.20;8.70;;;;;;;-2.96;100.00;100856.54;105641;1257;72487;-54
2023/12/03 07:30:30;;;;;;;16.50;8.30;;;;;;;-2.98;100.00;100859.73;105589;1254;80914;-49
2023/12/03 07:32:58;;;;;;;17.90;8.70;;;;;;;-2.99;100.00;100863.14;105563;1254;71262;-50
2023/12/03 07:35:27;;;;;;;16.70;9.20;;;;;;;-3.00;100.00;100869.42;105645;1254;69154;-52
2023/12/03 07:37:55;;;;;;;17.80;9.30;;;;;;;-3.03;100.00;100870.20;105534;1257;69998;-52
2023/12/03 07:40:23;;;;;;;18.30;9.20;;;;;;;-3.05;100.00;100875.28;105465;1254;72918;-52
2023/12/03 07:42:51;;;;;;;17.70;9.10;;;;;;;-3.06;100.00;100877.48;105664;1253;81496;-51
2023/12/03 07:45:20;;;;;;;18.30;9.00;;;;;;;-3.05;100.00;100880.73;105477;1254;72834;-52
2023/12/03 07:47:50;;;;;;;18.70;10.30;;;;;;;-3.03;100.00;100886.77;105452;1252;69192;-49
2023/12/03 07:50:18;;;;;;;17.60;10.00;;;;;;;-3.03;100.00;100888.48;105389;1256;69838;-50
2023/12/03 07:52:46;;;;;;;20.10;9.90;;;;;;;-3.03;100.00;100887.29;105727;1254;73517;-50
2023/12/03 07:55:15;;;;;;;15.90;9.00;;;;;;;-3.04;100.00;100887.63;105645;1253;81409;-50
2023/12/03 07:57:43;;;;;;;14.90;8.60;;;;;;;-3.01;100.00;100891.64;105700;1254;71843;-52
2023/12/03 08:00:13;;;;;;;15.90;8.30;;;;;;;-3.00;100.00;100895.06;105500;1257;70010;-50
2023/12/03 08:02:42;;;;;;;20.00;10.00;;;;;;;-3.02;100.00;100898.09;105659;1253;69968;-49
2023/12/03 08:05:10;;;;;;;21.60;10.20;;;;;;;-3.01;100.00;100900.86;105798;1254;72328;-51
2023/12/03 08:07:39;;;;;;;18.80;10.00;;;;;;;-3.02;100.00;100899.80;105704;1254;81963;-51
2023/12/03 08:10:08;;;;;;;18.00;10.00;;;;;;;-3.04;100.00;100901.80;105764;1253;71897;-53
2023/12/03 08:12:36;;;;;;;18.70;9.40;;;;;;;-3.03;100.00;100905.58;105682;1254;69927;-50
2023/12/03 08:15:05;;;;;;;21.20;10.00;;;;;;;-3.02;100.00;100910.91;105483;1254;69858;-50
2023/12/03 08:17:33;;;;;;;19.50;8.80;;;;;;;-3.00;100.00;100912.86;105615;1254;72782;-52
2023/12/03 08:20:01;;;;;;;18.50;8.60;;;;;;;-2.96;100.00;100909.02;105510;1254;81826;-52
2023/12/03 08:22:29;;;;;;;17.70;9.80;;;;;;;-2.95;100.00;100910.59;105474;1254;73983;-54
2023/12/03 08:24:57;;;;;;;17.20;8.90;;;;;;;-2.94;100.00;100915.06;105511;1257;69128;-52
2023/12/03 08:27:26;;;;;;;18.80;9.80;;;;;;;-2.91;100.00;100912.57;105643;1253;69992;-54
2023/12/03 08:29:54;;;;;;;17.40;8.80;;;;;;;-2.90;100.00;100917.89;105655;1254;73277;-54
2023/12/03 08:32:22;;;;;;;13.70;8.30;;;;;;;-2.89;100.00;100918.09;105516;1257;83667;-49
2023/12/03 08:34:50;;;;;;;16.10;7.90;;;;;;;-2.88;100.00;100917.10;105443;1254;72294;-52
2023/12/03 08:37:19;;;;;;;16.70;8.40;;;;;;;-2.86;100.00;100920.38;105555;1254;70088;-51
2023/12/03 08:39:48;;;;;;;15.10;8.10;;;;;;;-2.83;100.00;100925.63;105671;1257;69913;-50
2023/12/03 08:42:18;;;;;;;16.20;9.00;;;;;;;-2.80;100.00;100929.95;105548;1254;74343;-52
2023/12/03 08:44:46;;;;;;;15.90;8.10;;;;;;;-2.76;100.00;100930.56;105495;1257;82041;-50
2023/12/03 08:47:17;;;;;;;16.30;7.60;;;;;;;-2.71;100.00;100934.48;105576;1257;70404;-54
2023/12/03 08:49:45;;;;;;;16.60;9.60;;;;;;;-2.63;100.00;100944.06;105494;1257;69816;-52
2023/12/03 08:52:15;;;;;;;16.30;8.20;;;;;;;-2.55;100.00;100942.56;105585;1256;69855;-54
2023/12/03 08:54:43;;;;;;;14.00;8.20;;;;;;;-2.48;100.00;100946.52;105602;1254;72980;-50
2023/12/03 08:57:12;;;;;;;16.30;8.80;;;;;;;-2.42;100.00;100949.55;105350;1254;81758;-49
2023/12/03 08:59:40;;;;;;;14.10;7.70;;;;;;;-2.37;99.98;100952.91;105397;1254;72190;-53
2023/12/03 09:02:08;;;;;;;16.00;8.10;;;;;;;-2.32;99.98;100957.86;105513;1254;69122;-50
2023/12/03 09:04:38;;;;;;;15.70;7.90;;;;;;;-2.22;99.96;100962.34;105510;1253;70018;-53
2023/12/03 09:07:06;;;;;;;15.40;7.90;;;;;;;-2.15;99.89;100965.09;105482;1257;72407;-54
2023/12/03 09:09:34;;;;;;;15.60;7.80;;;;;;;-2.05;100.00;100972.02;105562;1258;81933;-50
2023/12/03 09:12:03;;;;;;;15.20;8.00;;;;;;;-1.96;99.86;100971.19;105459;1253;73426;-52
2023/12/03 09:14:31;;;;;;;15.10;8.50;;;;;;;-1.89;99.65;100973.06;105499;1256;69936;-55
2023/12/03 09:17:04;;;;;;;16.10;8.80;;;;;;;-1.83;99.42;100970.13;105455;1257;69215;-55
2023/12/03 09:19:32;;;;;;;25.40;11.90;;;;;;;-1.75;99.32;100968.40;105570;1254;72825;-54
2023/12/03 09:22:00;;;;;;;23.60;11.10;;;;;;;-1.67;99.22;100974.59;105529;1257;81701;-53
2023/12/03 09:24:28;;;;;;;21.70;10.60;;;;;;;-1.60;99.09;100972.86;105481;1254;71886;-56
2023/12/03 09:26:57;;;;;;;17.30;8.40;;;;;;;-1.46;98.94;100970.23;105507;1254;69127;-54
2023/12/03 09:29:25;;;;;;;14.30;7.90;;;;;;;-1.38;98.55;100971.08;105527;1258;69131;-54
2023/12/03 09:31:53;;;;;;;14.80;7.80;;;;;;;-1.34;98.53;100964.84;105549;1254;73521;-54
2023/12/03 09:34:24;;;;;;;;;;;;;;;-1.29;98.59;100964.41;105468;1257;82844;-54
2023/12/03 09:36:52;;;;;;;32.80;16.70;;;;;;;-1.27;98.69;100963.09;105476;1254;72908;-55
2023/12/03 09:39:20;;;;;;;33.80;16.00;;;;;;;-1.31;98.33;100966.77;105464;1254;69087;-56
2023/12/03 09:41:50;;;;;;;20.90;10.60;;;;;;;-1.36;98.10;100966.85;105520;1257;69483;-55
2023/12/03 09:44:26;;;;;;;40.10;16.30;;;;;;;-1.31;98.37;100968.49;105484;1254;72579;-56
2023/12/03 09:46:55;;;;;;;41.30;18.70;;;;;;;-1.13;98.41;100967.63;105498;1254;81573;-56
2023/12/03 09:49:23;;;;;;;26.10;13.00;;;;;;;-0.98;98.50;100968.98;105448;1254;72114;-57
2023/12/03 09:51:52;;;;;;;17.30;9.80;;;;;;;-0.80;98.26;100972.23;105470;1254;69249;-56
2023/12/03 09:54:21;;;;;;;17.30;9.10;;;;;;;-0.66;98.13;100976.94;105529;1253;69074;-56
2023/12/03 09:56:50;;;;;;;15.50;8.20;;;;;;;-0.52;97.94;100974.27;105541;1254;73227;-57
2023/12/03 09:59:18;;;;;;;24.30;11.30;;;;;;;-0.30;97.98;100973.44;105507;1257;82850;-56
2023/12/03 10:01:48;;;;;;;16.40;9.10;;;;;;;-0.11;97.66;100974.60;105491;1254;72116;-57
2023/12/03 10:04:16;;;;;;;20.70;10.90;;;;;;;-0.06;97.20;100976.23;105462;1254;69141;-57
2023/12/03 10:06:46;;;;;;;26.60;11.20;;;;;;;-0.08;96.72;100982.21;105490;1257;69183;-57
2023/12/03 10:09:14;;;;;;;22.80;10.10;;;;;;;-0.15;96.53;100987.42;105551;1254;73073;-57
2023/12/03 10:11:53;;;;;;;44.30;14.50;;;;;;;-0.31;96.14;100986.97;105506;1257;81907;-56
2023/12/03 10:14:22;;;;;;;40.10;15.80;;;;;;;-0.46;96.11;100989.82;105525;1254;70889;-58
2023/12/03 10:16:51;;;;;;;27.60;13.60;;;;;;;-0.58;96.12;100996.48;105550;1254;69165;-58
2023/12/03 10:19:26;;;;;;;29.60;13.50;;;;;;;-0.71;96.06;100995.02;105513;1257;69186;-57
2023/12/03 10:21:56;;;;;;;22.20;10.70;;;;;;;-0.77;96.12;100998.88;105525;1254;73006;-57
2023/12/03 10:24:24;;;;;;;26.40;11.90;;;;;;;-0.84;96.06;100998.05;105511;1256;82054;-58
2023/12/03 10:26:54;;;;;;;30.70;14.30;;;;;;;-0.92;96.22;100997.91;105419;1253;71624;-58
2023/12/03 10:29:26;;;;;;;24.10;13.10;;;;;;;-0.98;96.27;100999.48;105490;1253;69176;-57
2023/12/03 10:31:56;;;;;;;23.00;12.30;;;;;;;-1.03;96.44;100997.86;105503;1258;69628;-58
2023/12/03 10:34:24;;;;;;;18.10;10.50;;;;;;;-1.06;96.55;100998.14;105545;1257;72904;-58
2023/12/03 10:36:52;;;;;;;21.50;11.40;;;;;;;-1.13;96.54;100997.48;105529;1257;81990;-58
2023/12/03 10:39:21;;;;;;;42.50;18.10;;;;;;;-1.20;96.54;101005.06;105465;1254;71570;-57
2023/12/03 10:41:51;;;;;;;34.20;15.70;;;;;;;-1.25;96.62;101005.13;105508;1256;69176;-58
2023/12/03 10:44:24;;;;;;;19.50;11.10;;;;;;;-1.31;96.63;101011.35;105515;1258;69182;-58
2023/12/03 10:46:52;;;;;;;25.00;12.90;;;;;;;-1.38;96.54;101016.17;105515;1257;74802;-58
2023/12/03 10:49:23;;;;;;;19.60;11.10;;;;;;;-1.43;96.37;101022.25;105485;1257;81678;-58
2023/12/03 10:51:54;;;;;;;17.50;10.50;;;;;;;-1.48;96.51;101017.48;105499;1256;72075;-57
2023/12/03 10:54:22;;;;;;;14.20;8.50;;;;;;;-1.52;96.80;101016.21;105407;1257;192439;-58
2023/12/03 10:56:54;;;;;;;17.20;9.10;;;;;;;-1.52;96.81;101020.16;105401;1254;69179;-57
2023/12/03 10:59:29;;;;;;;23.50;9.80;;;;;;;-1.54;96.60;101019.77;105502;1254;72355;-58
2023/12/03 11:02:01;;;;;;;23.80;10.00;;;;;;;-1.55;96.91;101023.52;105480;1254;81150;-58
2023/12/03 11:04:38;;;;;;;23.50;11.70;;;;;;;-1.57;96.93;101023.48;105500;1254;72027;-58